Aérodrome :
LOGIN :

S'inscrire | Disclaimer

   EN    FR    IT 

 










Légende :    VFR   VFR Marginal   IFR   IFR Intensif   IFR Très Intensif
Visi : 
Plafond : 
>= 8 km
>= 3000ft
5 à 8 km
1000 à 3000 ft
1500m à 5 km
500 à 1000 ft
800 à 1500m
200 à 500 ft
< 800m
< 200 ft
Symboles :   Orages  Brouillard  Fortes neiges  Fortes précipitations  Vent > 20 kt
SIGMETs :   Divers  Orages  Givrage  Turbulence  Onde Orograph.  Cendres Volcan.







- Altitude de l'aérodrome : 375 ft
- Code IATA : MST


EHBK - Maastricht Aachen

DERNIER METAR :
  • 170925Z AUTO 27004KT 200V310 8000 NSC 16/11 Q1019 TEMPO 7000

METARs EXPIRÉS :
  • 170855Z AUTO 25004KT 220V290 7000 NSC 16/11 Q1019 NOSIG
  • 170825Z AUTO 23005KT 200V270 9999 NSC 15/10 Q1019 NOSIG
  • 170755Z AUTO 23006KT 210V270 9999 NSC 13/10 Q1019 NOSIG
  • 170725Z AUTO 21005KT 9999 NSC 12/09 Q1019 NOSIG
  • 170655Z AUTO 20003KT 9999 NSC 11/09 Q1019 NOSIG

TAF TAF EHBK
Valide du 17 à 06h jusqu'au 18 à 12h UTC


170517Z 1706/1812 22006KT CAVOK
BECMG 1723/1802 4000 BR
PROB30 1803/1806 2000 BKN003
BECMG 1807/1810 CAVOK
Pas de NOTAMs connus pour ce terrain.



MET'MAP, la Météo Aéronautique d'un coup d'oeil ! - Copyright ORBIFLY Décembre 2007 - Disclaimer

ORBIFLY MET'MAP TEAM :

Programmation & Développement : Alexandra Zaïnal
Conception & Développement : Baudouin d'Aumeries
Co-Programmation & Développement : Marc-Olivier Méhu
Soutien technique & logistique : Manuel Goepfert

Contact : metmap@orbifly.com




SOURCES & CREDITS :

   NOAA